Latest Weather Observations for Mandora

IDW60801

Issued at 2:35 am WST Saturday 25 October 2014 (issued every 30 minutes, with the page automatically refreshed every 10 minutes)

About weather observations | Map of weather stations | Latest weather observations for WA | Other Formats
Station Details ID: 004019 Name: MANDORA Lat: -19.74 Lon: 120.84 Height: 7.5 m
Data from the previous 72 hours. | See also: Recent months at Mandora
Date/Time
WST
Temp
°C
App
Temp
°C
Dew
Point
Rel
Hum
%
Delta-T
°C
Wind Press
QNH
hPa
Press
MSL
hPa
Rain
since 9 am
mm
Dir
 
Spd
km/h
Gust
km/h
Spd
kts
Gust
kts
25/02:30am 23.2 - - - - ENE 7 9 4 5 1011.1 - 0.0
25/02:00am 23.5 - - - - E 9 13 5 7 1011.3 - 0.0
25/01:30am 24.5 - - - - SW 7 11 4 6 1011.3 - 0.0
25/01:00am 24.9 - - - - W 13 19 7 10 1011.4 - 0.0
25/12:30am 25.0 - - - - W 9 15 5 8 1011.8 - 0.0
25/12:00am 25.0 - - - - WNW 15 20 8 11 1011.5 1011.4 0.0
 
Date/Time
WST
Temp
°C
App
Temp
°C
Dew
Point
Rel
Hum
%
Delta-T
°C
Wind Press
QNH
hPa
Press
MSL
hPa
Rain
since 9 am
mm
Dir
 
Spd
km/h
Gust
km/h
Spd
kts
Gust
kts
24/11:30pm 25.0 - - - - NW 15 20 8 11 1011.8 - 0.0
24/11:00pm 24.5 - - - - NW 9 13 5 7 1012.2 - 0.0
24/10:30pm 24.7 - - - - NNW 9 13 5 7 1012.3 - 0.0
24/10:00pm 25.0 - - - - WNW 9 13 5 7 1012.3 - 0.0
24/09:30pm 25.1 - - - - NW 11 15 6 8 1012.0 - 0.0
24/09:00pm 25.3 - - - - WNW 11 17 6 9 1012.0 1011.9 0.0
24/08:30pm 25.5 - - - - WNW 13 20 7 11 1011.8 - 0.0
24/08:00pm 25.7 - - - - NW 15 19 8 10 1011.6 - 0.0
24/07:30pm 25.9 - - - - NW 17 22 9 12 1011.2 - 0.0
24/07:00pm 26.1 - - - - NW 15 20 8 11 1010.8 - 0.0
24/06:30pm 26.3 - - - - NW 17 24 9 13 1010.6 - 0.0
24/06:00pm 26.7 - - - - NNW 19 26 10 14 1010.2 1010.1 0.0
24/05:30pm 27.6 - - - - NW 19 28 10 15 1009.8 - 0.0
24/05:00pm 28.0 - - - - NW 20 30 11 16 1009.7 - 0.0
24/04:30pm 29.1 - - - - NW 19 28 10 15 1009.7 - 0.0
24/04:00pm 30.0 - - - - NW 22 30 12 16 1009.6 - 0.0
24/03:30pm 30.1 - - - - NNW 22 33 12 18 1009.7 - 0.0
24/03:00pm 30.3 - - - - NNW 24 32 13 17 1009.6 1009.5 0.0
24/02:30pm 30.4 - - - - NNW 22 32 12 17 1009.9 - 0.0
24/02:00pm 30.7 - - - - NNW 24 35 13 19 1010.1 - 0.0
24/01:30pm 30.5 - - - - N 24 32 13 17 1010.3 - 0.0
24/01:00pm 31.4 - - - - N 22 33 12 18 1010.6 - 0.0
24/12:30pm 31.4 - - - - N 22 32 12 17 1010.8 - 0.0
24/12:00pm 31.7 - - - - N 20 28 11 15 1010.9 1010.8 0.0
24/11:30am 31.3 - - - - N 19 28 10 15 1011.1 - 0.0
24/11:00am 31.8 - - - - N 20 28 11 15 1011.3 - 0.0
24/10:30am 31.6 - - - - N 17 26 9 14 1011.5 - 0.0
24/10:00am 31.2 - - - - N 17 24 9 13 1011.7 - 0.0
24/09:30am 30.5 - - - - N 19 24 10 13 1011.8 - 0.0
24/09:00am 30.5 - - - - NE 9 19 5 10 1011.9 1011.8 0.0
24/08:30am 29.8 - - - - E 9 13 5 7 1012.1 - 0.0
24/08:00am 28.5 - - - - ENE 6 11 3 6 1011.9 - 0.0
24/07:30am 26.9 - - - - E 9 13 5 7 1011.8 - 0.0
24/07:00am 25.0 - - - - E 7 13 4 7 1011.8 - 0.0
24/06:30am 23.6 - - - - SE 6 9 3 5 1011.8 - 0.0
24/06:00am 22.7 - - - - ESE 7 9 4 5 1011.3 1011.2 0.0
24/05:30am 22.5 - - - - ESE 9 11 5 6 1011.1 - 0.0
24/05:00am 21.1 - - - - SSE 9 11 5 6 1010.6 - 0.0
24/04:30am 20.9 - - - - ESE 6 7 3 4 1010.3 - 0.0
24/04:00am 20.7 - - - - ESE 6 7 3 4 1010.2 - 0.0
24/03:30am 21.1 - - - - CALM 0 0 0 0 1009.9 - 0.0
24/03:00am 21.2 - - - - CALM 0 4 0 2 1009.9 1009.8 0.0
24/02:30am 21.3 - - - - E 6 9 3 5 1010.0 - 0.0
24/02:00am 21.6 - - - - ENE 7 11 4 6 1010.0 - 0.0
24/01:30am 22.1 - - - - NE 7 9 4 5 1009.9 - 0.0
24/01:00am 21.8 - - - - CALM 0 6 0 3 1010.2 - 0.0
24/12:30am 22.6 - - - - N 7 9 4 5 1010.3 - 0.0
24/12:00am 22.8 - - - - CALM 0 4 0 2 1010.7 1010.6 0.0
 
Date/Time
WST
Temp
°C
App
Temp
°C
Dew
Point
Rel
Hum
%
Delta-T
°C
Wind Press
QNH
hPa
Press
MSL
hPa
Rain
since 9 am
mm
Dir
 
Spd
km/h
Gust
km/h
Spd
kts
Gust
kts
23/11:30pm 22.7 - - - - N 6 7 3 4 1011.0 - 0.0
23/11:00pm 23.2 - - - - NE 7 11 4 6 1011.1 - 0.0
23/10:30pm 22.8 - - - - NE 11 13 6 7 1011.6 - 0.0
23/10:00pm 23.3 - - - - E 4 7 2 4 1012.4 - 0.0
23/09:30pm 24.2 - - - - E 2 6 1 3 1012.4 - 0.0
23/09:00pm 24.8 - - - - SSE 7 11 4 6 1012.8 1012.7 0.0
23/08:30pm 25.2 - - - - E 4 9 2 5 1012.5 - 0.0
23/08:00pm 25.7 - - - - E 7 11 4 6 1012.3 - 0.0
23/07:30pm 25.8 - - - - ENE 9 13 5 7 1012.1 - 0.0
23/07:00pm 25.7 - - - - NE 7 9 4 5 1011.2 - 0.0
23/06:30pm 26.3 - - - - NNE 11 15 6 8 1010.6 - 0.0
23/06:00pm 26.9 - - - - N 15 19 8 10 1010.1 1010.0 0.0
23/05:30pm 27.6 - - - - N 15 20 8 11 1009.5 - 0.0
23/05:00pm 28.4 - - - - N 15 20 8 11 1009.1 - 0.0
23/04:30pm 29.0 - - - - N 17 24 9 13 1008.7 - 0.0
23/04:00pm 29.7 - - - - N 20 26 11 14 1008.6 - 0.0
23/03:30pm 30.2 - - - - N 19 24 10 13 1008.8 - 0.0
23/03:00pm 31.3 - - - - N 19 28 10 15 1008.9 1008.8 0.0
23/02:30pm 31.6 - - - - N 17 24 9 13 1008.9 - 0.0
23/02:00pm 30.2 - - - - N 19 28 10 15 1009.1 - 0.0
23/01:30pm 30.7 - - - - N 20 28 11 15 1009.2 - 0.0
23/01:00pm 30.3 - - - - N 19 28 10 15 1009.4 - 0.0
23/12:30pm 30.7 - - - - N 20 30 11 16 1009.9 - 0.0
23/12:00pm 30.7 - - - - N 20 26 11 14 1009.9 1009.8 0.0
23/11:30am 30.5 - - - - N 20 30 11 16 1010.1 - 0.0
23/11:00am 30.5 - - - - N 20 30 11 16 1010.4 - 0.0
23/10:30am 31.4 - - - - NNE 19 32 10 17 1010.5 - 0.0
23/10:00am 32.5 - - - - NNE 20 32 11 17 1010.5 - 0.0
23/09:30am 34.9 - - - - ENE 13 20 7 11 1010.6 - 0.0
23/09:00am 33.9 - - - - E 9 19 5 10 1010.6 1010.5 0.0
23/08:30am 32.0 - - - - E 9 13 5 7 1010.5 - 0.0
23/08:00am 29.0 - - - - NE 4 7 2 4 1010.6 - 0.0
23/07:30am 28.1 - - - - NE 7 11 4 6 1010.4 - 0.0
23/07:00am 26.3 - - - - E 4 7 2 4 1010.2 - 0.0
23/06:30am 24.4 - - - - E 4 9 2 5 1010.1 - 0.0
23/06:00am 22.7 - - - - SSW 9 11 5 6 1009.6 1009.5 0.0
23/05:30am 22.7 - - - - S 11 17 6 9 1009.3 - 0.0
23/05:00am 22.0 - - - - S 7 13 4 7 1008.9 - 0.0
23/04:30am 21.7 - - - - S 7 13 4 7 1008.5 - 0.0
23/04:00am 22.1 - - - - S 7 11 4 6 1008.6 - 0.0
23/03:30am 22.4 - - - - S 6 9 3 5 1008.4 - 0.0
23/03:00am 23.1 - - - - ESE 2 7 1 4 1008.6 1008.5 0.0
23/02:30am 23.5 - - - - CALM 0 0 0 0 1008.8 - 0.0
23/02:00am 23.9 - - - - CALM 0 4 0 2 1009.0 - 0.0
23/01:30am 24.7 - - - - N 7 11 4 6 1009.1 - 0.0
23/01:00am 24.9 - - - - N 9 11 5 6 1009.3 - 0.0
23/12:30am 25.8 - - - - NNW 7 9 4 5 1009.7 - 0.0
23/12:00am 26.3 - - - - N 7 11 4 6 1010.1 1010.0 0.0
 
Date/Time
WST
Temp
°C
App
Temp
°C
Dew
Point
Rel
Hum
%
Delta-T
°C
Wind Press
QNH
hPa
Press
MSL
hPa
Rain
since 9 am
mm
Dir
 
Spd
km/h
Gust
km/h
Spd
kts
Gust
kts
22/11:30pm 26.8 - - - - N 11 15 6 8 1010.3 - 0.0
22/11:00pm 27.0 - - - - NW 15 24 8 13 1010.4 - 0.0
22/10:30pm 27.2 - - - - NNW 11 17 6 9 1010.7 - 0.0
22/10:00pm 27.1 - - - - N 11 17 6 9 1011.0 - 0.0
22/09:30pm 27.2 - - - - N 13 20 7 11 1010.9 - 0.0
22/09:00pm 27.5 - - - - N 15 20 8 11 1010.8 1010.7 0.0
22/08:30pm 28.6 - - - - N 19 26 10 14 1010.6 - 0.0
22/08:00pm 28.1 - - - - N 22 30 12 16 1010.4 - 0.0
22/07:30pm 28.1 - - - - N 22 32 12 17 1010.3 - 0.0
22/07:00pm 28.1 - - - - N 24 32 13 17 1010.0 - 0.0
22/06:30pm 28.5 - - - - N 22 35 12 19 1009.5 - 0.0
22/06:00pm 31.2 - - - - N 17 26 9 14 1008.9 1008.8 0.0
22/05:30pm 34.6 - - - - N 19 22 10 12 1008.0 - 0.0
22/05:00pm 37.6 - - - - WNW 17 26 9 14 1007.1 - 0.0
22/04:30pm 38.8 - - - - WNW 22 35 12 19 1007.0 - 0.0
22/04:00pm 39.3 - - - - WNW 22 35 12 19 1007.0 - 0.0
22/03:30pm 40.2 - - - - WNW 26 35 14 19 1007.0 - 0.0
22/03:00pm 42.8 - - - - W 13 28 7 15 1007.0 1006.9 0.0
22/02:30pm 43.6 - - - - S 11 20 6 11 1007.2 - 0.0
22/02:00pm 42.9 - - - - NNE 9 17 5 9 1007.7 - 0.0
22/01:30pm 43.7 - - - - E 9 19 5 10 1008.1 - 0.0
22/01:00pm 43.1 - - - - SE 11 24 6 13 1008.7 - 0.0
22/12:30pm 43.3 - - - - S 19 32 10 17 1009.3 - 0.0
22/12:00pm 43.2 - - - - S 19 33 10 18 1009.8 1009.7 0.0
22/11:30am 41.9 - - - - S 26 44 14 24 1010.4 - 0.0
22/11:00am 41.3 - - - - S 22 43 12 23 1010.9 - 0.0
22/10:30am 40.9 - - - - S 24 37 13 20 1011.2 - 0.0
22/10:04am 39.8 - - - - S 28 46 15 25 1011.5 - 0.0
22/10:00am 39.7 - - - - S 30 46 16 25 1011.5 - 0.0
22/09:30am 39.3 - - - - SSE 30 44 16 24 1011.8 - 0.0
22/09:00am 38.6 - - - - S 28 43 15 23 1011.9 1011.8 0.0
22/08:30am 37.7 - - - - S 30 48 16 26 1011.8 - 0.0
22/08:00am 35.8 - - - - S 28 39 15 21 1011.6 - 0.0
22/07:30am 33.3 - - - - S 24 37 13 20 1011.4 - 0.0
22/07:00am 31.0 - - - - S 20 28 11 15 1011.3 - 0.0
22/06:30am 28.6 - - - - S 17 28 9 15 1010.9 - 0.0
22/06:00am 26.7 - - - - S 19 22 10 12 1010.5 1010.4 0.0
22/05:30am 25.5 - - - - S 15 20 8 11 1010.2 - 0.0
22/05:00am 26.8 - - - - S 17 24 9 13 1010.0 - 0.0
22/04:30am 27.1 - - - - S 19 22 10 12 1009.7 - 0.0
22/04:00am 26.2 - - - - S 17 20 9 11 1009.6 - 0.0
22/03:30am 25.9 - - - - S 17 20 9 11 1009.5 - 0.0
22/03:00am 26.0 - - - - S 15 19 8 10 1009.7 1009.6 0.0

Other Formats:

Comma delimited format used in spreadsheet applications
http://www.bom.gov.au/fwo/IDW60801/IDW60801.94200.axf

JavaScript Object Notation format (JSON) in row-major order
http://www.bom.gov.au/fwo/IDW60801/IDW60801.94200.json